Time;durP1;ratioP1;P1;durP2;ratioP2;P2;SDS_P1;SDS_P2;PMS_P1;PMS_P2;Temp;Humidity;BMP_temperature;BMP_pressure;BME280_temperature;BME280_humidity;BME280_pressure;Samples;Min_cycle;Max_cycle;Signal;HPM_P1;HPM_P2
2022/03/22 00:00:33;;;;;;;;;;;;;;;22.61;37.93;102596.78;7284659;19;152426;-57
2022/03/22 00:03:00;;;;;;;;;;;;;;;22.61;38.03;102596.78;7283586;19;152905;-57
2022/03/22 00:05:26;;;;;;;;;;;;;;;22.60;38.14;102595.09;7283184;19;154040;-57
2022/03/22 00:07:53;;;;;;;;;;;;;;;22.60;38.14;102595.94;7285545;19;151911;-57
2022/03/22 00:10:20;;;;;;;;;;;;;;;22.57;38.63;102590.03;7284642;19;152613;-58
2022/03/22 00:12:49;;;;;;;;;;;;;;;22.53;38.51;102594.53;7279566;19;153856;-58
2022/03/22 00:15:16;;;;;;;;;;;;;;;22.51;38.97;102597.63;7291049;19;152332;-57
2022/03/22 00:18:03;;;;;;;;;;;;;;;22.49;38.84;102593.38;7279984;19;156413;-57
2022/03/22 00:20:30;;;;;;;;;;;;;;;22.48;38.89;102600.16;7285372;19;152109;-56
2022/03/22 00:22:57;;;;;;;;;;;;;;;22.45;38.93;102593.09;7284182;19;153184;-57
2022/03/22 00:25:24;;;;;;;;;;;;;;;22.43;38.81;102589.75;7281864;19;153917;-57
2022/03/22 00:27:54;;;;;;;;;;;;;;;22.39;39.11;102588.63;7284893;19;152377;-57
2022/03/22 00:30:25;;;;;;;;;;;;;;;22.38;39.09;102592.56;7283766;19;153084;-57
2022/03/22 00:32:53;;;;;;;;;;;;;;;22.38;39.64;102591.72;7283238;19;153929;-57
2022/03/22 00:35:24;;;;;;;;;;;;;;;22.35;39.51;102590.28;7292091;19;152139;-57
2022/03/22 00:37:53;;;;;;;;;;;;;;;22.34;39.29;102594.25;7281094;19;153556;-56
2022/03/22 00:40:20;;;;;;;;;;;;;;;22.32;39.62;102598.44;7283993;19;151792;-59
2022/03/22 00:42:48;;;;;;;;;;;;;;;22.30;39.40;102598.75;7281783;19;153922;-57
2022/03/22 00:45:16;;;;;;;;;;;;;;;22.29;39.67;102602.69;7282864;19;154133;-57
2022/03/22 00:47:46;;;;;;;;;;;;;;;22.27;39.95;102593.66;7283724;19;152111;-56
2022/03/22 00:50:14;;;;;;;;;;;;;;;22.25;40.13;102590.28;7284129;19;153164;-56
2022/03/22 00:52:41;;;;;;;;;;;;;;;22.22;40.13;102604.91;7279511;19;153979;-57
2022/03/22 00:55:08;;;;;;;;;;;;;;;22.23;40.58;102609.44;7283461;19;152066;-56
2022/03/22 00:57:36;;;;;;;;;;;;;;;22.18;40.69;102601.81;7287971;19;152661;-56
2022/03/22 01:00:05;;;;;;;;;;;;;;;22.16;40.52;102597.59;7280913;19;151905;-57
2022/03/22 01:02:34;;;;;;;;;;;;;;;22.14;40.56;102592.25;7284625;19;153049;-57
2022/03/22 01:05:04;;;;;;;;;;;;;;;22.11;40.42;102600.41;7281883;19;152644;-56
2022/03/22 01:07:33;;;;;;;;;;;;;;;22.13;40.65;102600.97;7283085;19;151704;-57
2022/03/22 01:10:05;;;;;;;;;;;;;;;22.10;40.78;102602.38;7281090;19;152960;-56
2022/03/22 01:12:34;;;;;;;;;;;;;;;22.07;40.66;102597.31;7280141;19;153924;-56
2022/03/22 01:15:04;;;;;;;;;;;;;;;22.04;40.70;102595.03;7283628;19;152297;-56
2022/03/22 01:17:31;;;;;;;;;;;;;;;22.04;41.00;102589.41;7282042;19;153724;-57
2022/03/22 01:19:58;;;;;;;;;;;;;;;22.06;40.87;102589.13;7286416;19;152551;-56
2022/03/22 01:22:25;;;;;;;;;;;;;;;22.03;41.19;102592.53;7283069;19;153066;-57
2022/03/22 01:24:52;;;;;;;;;;;;;;;22.03;41.26;102586.88;7282613;19;153654;-58
2022/03/22 01:27:22;;;;;;;;;;;;;;;22.02;41.08;102591.66;7282089;19;152252;-57
2022/03/22 01:29:49;;;;;;;;;;;;;;;22.01;41.08;102580.69;7282927;19;154059;-57
2022/03/22 01:32:16;;;;;;;;;;;;;;;22.02;41.35;102577.59;7278226;19;153104;-58
2022/03/22 01:34:42;;;;;;;;;;;;;;;22.02;41.55;102577.59;7282816;19;151784;-57
2022/03/22 01:37:10;;;;;;;;;;;;;;;22.00;41.22;102574.19;7278641;19;151756;-58
2022/03/22 01:39:37;;;;;;;;;;;;;;;22.00;41.13;102570.53;7281382;19;153939;-57
2022/03/22 01:42:04;;;;;;;;;;;;;;;22.00;41.35;102564.91;7288671;19;152089;-57
2022/03/22 01:44:30;;;;;;;;;;;;;;;21.96;41.34;102563.78;7280742;19;153237;-57
2022/03/22 01:47:01;;;;;;;;;;;;;;;21.97;41.55;102559.84;7282560;19;151658;-56
2022/03/22 01:49:34;;;;;;;;;;;;;;;21.93;41.67;102561.53;7281778;19;152555;-57
2022/03/22 01:52:02;;;;;;;;;;;;;;;21.92;41.35;102560.66;7281103;19;153917;-56
2022/03/22 01:54:28;;;;;;;;;;;;;;;21.92;41.31;102568.25;7281523;19;152447;-57
2022/03/22 01:56:55;;;;;;;;;;;;;;;21.86;41.39;102558.09;7281801;19;152674;-57
2022/03/22 01:59:22;;;;;;;;;;;;;;;21.90;41.92;102564.84;7280310;19;152652;-57
2022/03/22 02:07:20;;;;;;;;;;;;;;;21.86;41.71;102555.28;7281160;19;152909;-57
2022/03/22 02:09:47;;;;;;;;;;;;;;;21.85;41.61;102548.00;7278331;19;153113;-58
2022/03/22 02:12:14;;;;;;;;;;;;;;;21.80;41.90;102548.81;7278496;19;153919;-58
2022/03/22 02:14:40;;;;;;;;;;;;;;;21.83;42.20;102553.03;7280712;19;151889;-57
2022/03/22 02:17:09;;;;;;;;;;;;;;;21.79;41.76;102558.38;7280605;19;153292;-57
2022/03/22 02:19:37;;;;;;;;;;;;;;;21.80;42.22;102556.41;7279882;19;153687;-57
2022/03/22 02:22:06;;;;;;;;;;;;;;;21.79;41.73;102544.31;7278034;19;151906;-56
2022/03/22 02:24:32;;;;;;;;;;;;;;;21.77;41.86;102537.25;7282115;19;153355;-57
2022/03/22 02:27:01;;;;;;;;;;;;;;;21.78;42.03;102548.25;7286641;19;152377;-56
2022/03/22 02:29:35;;;;;;;;;;;;;;;21.77;42.29;102537.25;7281280;19;153379;-56
2022/03/22 02:32:03;;;;;;;;;;;;;;;21.76;42.40;102541.22;7278793;19;153934;-56
2022/03/22 02:34:32;;;;;;;;;;;;;;;21.73;42.28;102536.97;7278929;19;152093;-57
2022/03/22 02:37:01;;;;;;;;;;;;;;;21.72;42.48;102541.75;7279565;19;153188;-57
2022/03/22 02:39:35;;;;;;;;;;;;;;;21.68;42.14;102537.81;7279900;19;154003;-57
2022/03/22 02:42:02;;;;;;;;;;;;;;;21.70;42.60;102544.00;7280769;19;151734;-57
2022/03/22 02:44:28;;;;;;;;;;;;;;;21.69;42.20;102533.03;7280083;19;153540;-56
2022/03/22 02:46:55;;;;;;;;;;;;;;;21.68;42.16;102537.81;7287546;19;153413;-56
2022/03/22 02:49:22;;;;;;;;;;;;;;;21.65;42.22;102543.16;7280869;19;152614;-56
2022/03/22 02:51:48;;;;;;;;;;;;;;;21.64;42.36;102544.25;7278156;19;153287;-57
2022/03/22 02:54:16;;;;;;;;;;;;;;;21.65;42.44;102543.16;7279202;19;151752;-57
2022/03/22 02:56:44;;;;;;;;;;;;;;;21.64;42.67;102547.06;7278546;19;153122;-57
2022/03/22 02:59:12;;;;;;;;;;;;;;;21.63;42.75;102549.03;7275355;19;154046;-56
2022/03/22 03:01:38;;;;;;;;;;;;;;;21.61;42.65;102554.13;7279381;19;152363;-58
2022/03/22 03:04:05;;;;;;;;;;;;;;;21.62;42.67;102546.53;7279882;19;152606;-57
2022/03/22 03:06:32;;;;;;;;;;;;;;;21.59;42.66;102539.47;7278949;19;153242;-57
2022/03/22 03:08:59;;;;;;;;;;;;;;;21.59;42.38;102547.91;7286870;19;152005;-57
2022/03/22 03:11:28;;;;;;;;;;;;;;;21.58;42.29;102542.56;7275648;19;152211;-56
2022/03/22 03:16:40;;;;;;;;;;;;;;;21.56;42.48;102533.56;7279780;19;153277;-56
2022/03/22 03:19:07;;;;;;;;;;;;;;;21.51;42.89;102541.97;7275256;19;153690;-56
2022/03/22 03:21:34;;;;;;;;;;;;;;;21.52;42.56;102538.06;7277337;19;151970;-56
2022/03/22 03:24:01;;;;;;;;;;;;;;;21.51;42.67;102540.00;7276349;19;153208;-56
2022/03/22 03:26:27;;;;;;;;;;;;;;;21.49;43.05;102530.16;7278811;19;153264;-57
2022/03/22 03:28:54;;;;;;;;;;;;;;;21.46;42.67;102537.19;7279145;19;151778;-57
2022/03/22 03:31:21;;;;;;;;;;;;;;;21.41;43.11;102534.34;7285379;19;153359;-56
2022/03/22 03:33:48;;;;;;;;;;;;;;;21.43;42.86;102522.84;7274268;19;152054;-57
2022/03/22 03:36:14;;;;;;;;;;;;;;;21.45;43.19;102529.88;7274480;19;152137;-59
2022/03/22 03:38:41;;;;;;;;;;;;;;;21.45;43.04;102527.03;7275305;19;154026;-57
2022/03/22 03:43:54;;;;;;;;;;;;;;;21.42;42.88;102529.56;7277971;19;153606;-57
2022/03/22 03:49:06;;;;;;;;;;;;;;;21.37;43.35;102523.94;7277751;19;152376;-58
2022/03/22 03:51:36;;;;;;;;;;;;;;;21.38;43.20;102520.00;7278811;19;153687;-57
2022/03/22 03:54:02;;;;;;;;;;;;;;;21.38;42.98;102526.47;7283731;19;153779;-57
2022/03/22 03:56:30;;;;;;;;;;;;;;;21.33;42.93;102526.47;7277796;19;153354;-57
2022/03/22 03:58:57;;;;;;;;;;;;;;;21.32;42.94;102526.72;7271485;19;155035;-57
2022/03/22 04:01:25;;;;;;;;;;;;;;;21.32;43.52;102527.56;7277889;19;152013;-57
2022/03/22 04:03:52;;;;;;;;;;;;;;;21.30;43.77;102541.88;7278414;19;153419;-56
2022/03/22 04:06:19;;;;;;;;;;;;;;;21.30;43.54;102546.69;7273845;19;153903;-56
2022/03/22 04:08:45;;;;;;;;;;;;;;;21.32;43.98;102537.97;7276982;19;152288;-56
2022/03/22 04:11:12;;;;;;;;;;;;;;;21.30;43.70;102547.50;7276717;19;153610;-56
2022/03/22 04:13:39;;;;;;;;;;;;;;;21.28;43.87;102549.78;7273956;19;154110;-57
2022/03/22 04:16:05;;;;;;;;;;;;;;;21.23;43.65;102543.28;7284822;19;152165;-57
2022/03/22 04:18:34;;;;;;;;;;;;;;;21.24;44.04;102548.63;7275211;19;152392;-58
2022/03/22 04:21:01;;;;;;;;;;;;;;;21.17;44.10;102550.84;7275993;19;151638;-57
2022/03/22 04:23:30;;;;;;;;;;;;;;;21.20;44.44;102555.94;7278029;19;153332;-57
2022/03/22 04:25:57;;;;;;;;;;;;;;;21.17;44.44;102564.88;7276080;19;153714;-57
2022/03/22 04:33:55;;;;;;;;;;;;;;;21.13;44.05;102552.50;7277071;19;153724;-57
2022/03/22 04:36:21;;;;;;;;;;;;;;;21.10;44.64;102553.03;7284361;19;152819;-56
2022/03/22 04:38:48;;;;;;;;;;;;;;;21.09;44.21;102539.22;7274977;19;153564;-56
2022/03/22 04:41:15;;;;;;;;;;;;;;;21.08;44.58;102546.81;7278042;19;152053;-57
2022/03/22 04:43:42;;;;;;;;;;;;;;;21.07;44.60;102542.34;7276900;19;152809;-57
2022/03/22 04:46:09;;;;;;;;;;;;;;;21.05;44.22;102540.91;7282212;19;153880;-57
2022/03/22 04:48:40;;;;;;;;;;;;;;;21.12;44.32;102538.72;7282411;19;152040;-57
2022/03/22 04:56:48;;;;;;;;;;;;;;;21.09;44.35;102544.84;7283199;19;152088;-58
2022/03/22 04:59:19;;;;;;;;;;;;;;;21.08;44.67;102534.72;7288949;19;152632;-58
2022/03/22 05:01:46;;;;;;;;;;;;;;;21.05;44.29;102538.09;7281449;19;152061;-57
2022/03/22 05:04:14;;;;;;;;;;;;;;;21.05;44.41;102527.69;7280350;19;153909;-58
2022/03/22 05:06:41;;;;;;;;;;;;;;;21.03;44.60;102527.13;7283127;19;152285;-56
2022/03/22 05:09:08;;;;;;;;;;;;;;;21.02;44.50;102535.84;7283580;19;153194;-56
2022/03/22 05:11:35;;;;;;;;;;;;;;;21.04;44.78;102539.22;7282807;19;153547;-56
2022/03/22 05:14:02;;;;;;;;;;;;;;;21.04;44.33;102545.69;7281745;19;152700;-57
2022/03/22 05:16:34;;;;;;;;;;;;;;;21.02;44.58;102555.50;7283828;19;151996;-56
2022/03/22 05:19:01;;;;;;;;;;;;;;;21.03;44.35;102563.66;7278813;19;154194;-56
2022/03/22 05:21:28;;;;;;;;;;;;;;;20.97;44.58;102558.28;7289082;19;153890;-57
2022/03/22 05:23:55;;;;;;;;;;;;;;;20.97;44.63;102561.94;7282199;19;151815;-57
2022/03/22 05:26:22;;;;;;;;;;;;;;;20.94;44.62;102564.47;7282281;19;155422;-56
2022/03/22 05:28:48;;;;;;;;;;;;;;;20.96;44.42;102568.69;7280961;19;151782;-56
2022/03/22 05:31:15;;;;;;;;;;;;;;;20.94;44.68;102562.47;7282144;19;152660;-57
2022/03/22 05:33:42;;;;;;;;;;;;;;;20.92;44.96;102559.09;7282312;19;154320;-57
2022/03/22 05:36:09;;;;;;;;;;;;;;;20.96;45.00;102556.59;7282110;19;153128;-57
2022/03/22 05:38:37;;;;;;;;;;;;;;;20.96;44.99;102559.41;7280643;19;154355;-57
2022/03/22 05:41:03;;;;;;;;;;;;;;;20.92;45.07;102561.06;7279330;19;154265;-56
2022/03/22 05:43:31;;;;;;;;;;;;;;;20.91;45.14;102562.19;7288631;19;151495;-57
2022/03/22 05:45:58;;;;;;;;;;;;;;;20.91;44.98;102560.22;7282027;19;152582;-57
2022/03/22 05:48:26;;;;;;;;;;;;;;;20.87;45.20;102559.06;7283016;19;152193;-57
2022/03/22 05:50:53;;;;;;;;;;;;;;;20.90;45.23;102558.53;7283450;19;152937;-56
2022/03/22 05:53:19;;;;;;;;;;;;;;;20.89;45.16;102562.47;7279025;19;154026;-56
2022/03/22 05:55:47;;;;;;;;;;;;;;;20.88;45.00;102559.91;7281737;19;151834;-56
2022/03/22 05:58:14;;;;;;;;;;;;;;;20.86;44.76;102565.81;7280514;19;152545;-56
2022/03/22 06:00:40;;;;;;;;;;;;;;;20.86;44.96;102561.03;7279474;19;153681;-57
2022/03/22 06:03:08;;;;;;;;;;;;;;;20.85;45.17;102566.91;7282313;19;152636;-57
2022/03/22 06:05:35;;;;;;;;;;;;;;;20.84;44.91;102568.91;7288608;19;155027;-56
2022/03/22 06:08:02;;;;;;;;;;;;;;;20.84;45.18;102557.66;7279464;19;152357;-56
2022/03/22 06:10:28;;;;;;;;;;;;;;;20.80;45.36;102561.28;7279883;19;154203;-56
2022/03/22 06:12:56;;;;;;;;;;;;;;;20.80;45.29;102566.91;7278352;19;153983;-56
2022/03/22 06:15:29;;;;;;;;;;;;;;;20.77;45.44;102567.44;7279318;19;152918;-56
2022/03/22 06:17:58;;;;;;;;;;;;;;;20.79;45.55;102566.06;7281878;19;154546;-57
2022/03/22 06:20:26;;;;;;;;;;;;;;;20.77;45.68;102565.47;7277303;19;153832;-57
2022/03/22 06:22:54;;;;;;;;;;;;;;;20.73;45.24;102569.94;7279128;19;152453;-57
2022/03/22 06:25:21;;;;;;;;;;;;;;;20.71;45.30;102572.19;7280957;19;153171;-57
2022/03/22 06:27:49;;;;;;;;;;;;;;;20.73;45.72;102569.09;7287654;19;154371;-56
2022/03/22 06:30:17;;;;;;;;;;;;;;;20.68;45.86;102574.66;7279205;19;152618;-57
2022/03/22 06:32:51;;;;;;;;;;;;;;;20.66;45.60;102577.78;7280197;19;154264;-57
2022/03/22 06:35:19;;;;;;;;;;;;;;;20.67;45.48;102568.19;7280893;19;152062;-56
2022/03/22 06:37:46;;;;;;;;;;;;;;;20.64;45.85;102577.19;7281330;19;153538;-57
2022/03/22 06:40:14;;;;;;;;;;;;;;;20.64;45.79;102577.19;7276634;19;153024;-57
2022/03/22 06:42:41;;;;;;;;;;;;;;;20.63;45.82;102569.00;7281045;19;152090;-57
2022/03/22 06:45:10;;;;;;;;;;;;;;;20.60;45.80;102580.78;7279585;19;154277;-56
2022/03/22 06:47:39;;;;;;;;;;;;;;;20.58;45.54;102578.25;7287897;19;153451;-56
2022/03/22 06:50:07;;;;;;;;;;;;;;;20.57;45.76;102582.19;7281543;19;153297;-57
2022/03/22 06:52:34;;;;;;;;;;;;;;;20.57;45.55;102578.53;7279000;19;153541;-56
2022/03/22 06:55:01;;;;;;;;;;;;;;;20.55;45.42;102578.78;7280692;19;151973;-57
2022/03/22 06:57:29;;;;;;;;;;;;;;;20.56;45.54;102577.69;7280267;19;152613;-56
2022/03/22 06:59:55;;;;;;;;;;;;;;;20.55;45.55;102586.38;7275143;19;154277;-57
2022/03/22 07:02:22;;;;;;;;;;;;;;;20.55;45.70;102583.56;7279799;19;151607;-59
2022/03/22 07:04:49;;;;;;;;;;;;;;;20.54;45.87;102587.47;7279322;19;153425;-58
2022/03/22 07:07:16;;;;;;;;;;;;;;;20.53;45.51;102586.66;7278259;19;153553;-58
2022/03/22 07:09:43;;;;;;;;;;;;;;;20.50;45.52;102587.16;7282305;19;151649;-57
2022/03/22 07:12:10;;;;;;;;;;;;;;;20.52;45.76;102586.91;7277636;19;153771;-58
2022/03/22 07:14:42;;;;;;;;;;;;;;;20.51;45.81;102582.41;7278296;19;151721;-57
2022/03/22 07:17:10;;;;;;;;;;;;;;;20.57;45.63;102592.56;7280253;19;152773;-56
2022/03/22 07:19:37;;;;;;;;;;;;;;;20.62;45.97;102601.91;7277060;19;155687;-56
2022/03/22 07:22:05;;;;;;;;;;;;;;;20.64;46.04;102593.19;7279733;19;152111;-57
2022/03/22 07:24:32;;;;;;;;;;;;;;;20.61;46.04;102594.56;7277849;19;153322;-57
2022/03/22 07:26:59;;;;;;;;;;;;;;;20.63;45.99;102594.28;7279113;19;153240;-57
2022/03/22 07:29:26;;;;;;;;;;;;;;;20.60;45.86;102603.25;7279828;19;151958;-57
2022/03/22 07:31:59;;;;;;;;;;;;;;;20.62;45.85;102604.69;7286013;19;152929;-56
2022/03/22 07:34:27;;;;;;;;;;;;;;;20.63;45.86;102597.94;7279670;19;151756;-56
2022/03/22 07:36:54;;;;;;;;;;;;;;;20.65;45.54;102603.31;7279682;19;153659;-57
2022/03/22 07:39:22;;;;;;;;;;;;;;;20.69;45.42;102605.31;7274980;19;153950;-57
2022/03/22 07:41:51;;;;;;;;;;;;;;;20.75;45.53;102604.25;7279634;19;152122;-56
2022/03/22 07:44:24;;;;;;;;;;;;;;;20.79;44.61;102610.16;7276301;19;154289;-56
2022/03/22 07:46:51;;;;;;;;;;;;;;;20.82;44.50;102613.25;7278530;19;153937;-57
2022/03/22 07:54:49;;;;;;;;;;;;;;;20.99;42.71;102613.09;7284798;19;152410;-58
2022/03/22 07:57:16;;;;;;;;;;;;;;;21.05;42.43;102612.00;7277102;19;155141;-57
2022/03/22 07:59:42;;;;;;;;;;;;;;;21.09;42.36;102610.34;7273602;19;153288;-57
2022/03/22 08:02:09;;;;;;;;;;;;;;;21.14;42.46;102615.19;7273491;19;152535;-56
2022/03/22 08:04:36;;;;;;;;;;;;;;;21.17;42.12;102615.47;7276315;19;152610;-57
2022/03/22 08:07:03;;;;;;;;;;;;;;;21.22;42.08;102615.50;7276783;19;153749;-56
2022/03/22 08:09:30;;;;;;;;;;;;;;;21.28;42.02;102619.22;7277426;19;152131;-58
2022/03/22 08:11:59;;;;;;;;;;;;;;;21.33;41.60;102615.56;7273619;19;153690;-58
2022/03/22 08:14:26;;;;;;;;;;;;;;;21.38;41.59;102616.47;7275096;19;153310;-56
2022/03/22 08:16:53;;;;;;;;;;;;;;;21.43;41.24;102621.25;7281468;19;152850;-56
2022/03/22 08:19:20;;;;;;;;;;;;;;;21.47;41.37;102620.44;7274604;19;155055;-57
2022/03/22 08:21:48;;;;;;;;;;;;;;;21.53;41.15;102615.69;7281794;19;152031;-57
2022/03/22 08:24:18;;;;;;;;;;;;;;;21.59;40.93;102617.38;7282149;19;152048;-57
2022/03/22 08:26:45;;;;;;;;;;;;;;;21.64;41.15;102620.22;7281671;19;153373;-56
2022/03/22 08:29:11;;;;;;;;;;;;;;;21.68;40.68;102616.56;7284602;19;151960;-57
2022/03/22 08:31:43;;;;;;;;;;;;;;;21.72;40.54;102617.72;7284076;19;152968;-59
2022/03/22 08:34:10;;;;;;;;;;;;;;;21.78;40.62;102612.97;7283708;19;153937;-56
2022/03/22 08:36:37;;;;;;;;;;;;;;;21.86;40.79;102611.56;7283770;19;152075;-57
2022/03/22 08:39:03;;;;;;;;;;;;;;;21.91;40.24;102615.25;7290827;19;152445;-55
2022/03/22 08:41:31;;;;;;;;;;;;;;;21.95;40.75;102619.22;7283319;19;151793;-56
2022/03/22 08:43:57;;;;;;;;;;;;;;;21.98;40.43;102618.69;7281995;19;152520;-56
2022/03/22 08:46:24;;;;;;;;;;;;;;;22.01;40.54;102620.94;7279357;19;154988;-56
2022/03/22 08:48:52;;;;;;;;;;;;;;;22.06;40.38;102617.28;7283673;19;152086;-57
2022/03/22 08:51:20;;;;;;;;;;;;;;;22.08;40.36;102615.88;7281042;19;152750;-55
2022/03/22 08:53:47;;;;;;;;;;;;;;;22.14;40.04;102619.56;7280253;19;155677;-56
2022/03/22 08:56:15;;;;;;;;;;;;;;;22.18;39.96;102620.69;7283619;19;151904;-57
2022/03/22 08:58:42;;;;;;;;;;;;;;;22.22;39.93;102623.78;7287221;19;152628;-56
2022/03/22 09:01:08;;;;;;;;;;;;;;;22.24;39.78;102613.94;7281555;19;151989;-57
2022/03/22 09:03:38;;;;;;;;;;;;;;;22.28;39.73;102623.50;7246604;19;155579;-56
2022/03/22 09:06:08;;;;;;;;;;;;;;;22.30;39.67;102629.72;7277961;19;154702;-56
2022/03/22 09:08:36;;;;;;;;;;;;;;;22.33;39.38;102628.31;7279551;19;151868;-56
2022/03/22 09:11:04;;;;;;;;;;;;;;;22.34;39.72;102625.22;7281899;19;152574;-55
2022/03/22 09:13:37;;;;;;;;;;;;;;;22.37;39.68;102626.63;7280459;19;157554;-56
2022/03/22 09:16:05;;;;;;;;;;;;;;;22.39;39.26;102625.22;7282417;19;151991;-56
2022/03/22 09:18:32;;;;;;;;;;;;;;;22.40;39.53;102629.72;7280878;19;153508;-56
2022/03/22 09:21:00;;;;;;;;;;;;;;;22.40;39.45;102635.34;7285670;19;154007;-56
2022/03/22 09:23:27;;;;;;;;;;;;;;;22.42;39.00;102618.19;7282025;19;152947;-56
2022/03/22 09:25:54;;;;;;;;;;;;;;;22.42;39.14;102616.22;7278887;19;152886;-56
2022/03/22 09:28:21;;;;;;;;;;;;;;;22.42;38.99;102621.84;7281938;19;152080;-56
2022/03/22 09:30:50;;;;;;;;;;;;;;;22.44;38.94;102624.38;7279981;19;153931;-56
2022/03/22 09:33:17;;;;;;;;;;;;;;;22.40;39.11;102629.72;7280127;19;153354;-56
2022/03/22 09:35:44;;;;;;;;;;;;;;;22.42;38.87;102619.03;7281554;19;152822;-56
2022/03/22 09:38:15;;;;;;;;;;;;;;;22.42;39.22;102623.81;7279613;19;152128;-56
2022/03/22 09:40:42;;;;;;;;;;;;;;;22.42;39.04;102624.66;7276430;19;153956;-56
2022/03/22 09:43:09;;;;;;;;;;;;;;;22.43;38.96;102623.53;7287306;19;151661;-56
2022/03/22 09:45:36;;;;;;;;;;;;;;;22.43;38.94;102629.19;7279754;19;154003;-56
2022/03/22 09:48:03;;;;;;;;;;;;;;;22.42;39.11;102627.47;7281084;19;151954;-56
2022/03/22 09:53:17;;;;;;;;;;;;;;;22.41;39.04;102625.78;7279250;19;154454;-56
2022/03/22 09:55:44;;;;;;;;;;;;;;;22.42;39.03;102626.63;7278662;19;151969;-56
2022/03/22 09:58:11;;;;;;;;;;;;;;;22.41;38.75;102622.97;7280156;19;152824;-56
2022/03/22 10:00:38;;;;;;;;;;;;;;;22.41;38.86;102625.78;7278701;19;153951;-56
2022/03/22 10:03:05;;;;;;;;;;;;;;;22.40;38.80;102621.25;7280495;19;152189;-55
2022/03/22 10:05:32;;;;;;;;;;;;;;;22.40;39.04;102621.25;7280311;19;153270;-57
2022/03/22 10:08:00;;;;;;;;;;;;;;;22.39;38.80;102624.38;7278777;19;152164;-55
2022/03/22 10:10:28;;;;;;;;;;;;;;;22.37;38.69;102613.38;7280382;19;155090;-56
2022/03/22 10:12:57;;;;;;;;;;;;;;;22.38;38.63;102612.28;7275057;19;153970;-56
2022/03/22 10:15:28;;;;;;;;;;;;;;;22.39;38.81;102613.13;7278100;19;152473;-56
2022/03/22 10:18:06;;;;;;;;;;;;;;;22.38;38.95;102615.09;7281031;19;152620;-56
2022/03/22 10:20:34;;;;;;;;;;;;;;;22.38;38.53;102615.09;7278450;19;154132;-56
2022/03/22 10:23:01;;;;;;;;;;;;;;;22.37;38.80;102615.34;7278776;19;151840;-57
2022/03/22 10:25:32;;;;;;;;;;;;;;;22.37;38.73;102615.34;7279847;19;153428;-56
2022/03/22 10:28:00;;;;;;;;;;;;;;;22.37;38.73;102621.00;7285020;19;153452;-56
2022/03/22 10:30:27;;;;;;;;;;;;;;;22.36;38.77;102613.66;7279946;19;152160;-56
2022/03/22 10:32:54;;;;;;;;;;;;;;;22.35;38.57;102607.19;7279087;19;153151;-55
2022/03/22 10:35:31;;;;;;;;;;;;;;;22.34;38.52;102608.31;7277085;19;151924;-56
2022/03/22 10:38:00;;;;;;;;;;;;;;;22.34;38.98;102608.31;7277736;19;151795;-56
2022/03/22 10:40:27;;;;;;;;;;;;;;;22.34;38.95;102608.31;7277005;19;155362;-56
2022/03/22 10:42:55;;;;;;;;;;;;;;;22.33;38.80;102617.91;7279177;19;151629;-57
2022/03/22 10:45:22;;;;;;;;;;;;;;;22.33;38.86;102601.00;7279750;19;153340;-57
2022/03/22 10:47:49;;;;;;;;;;;;;;;22.32;38.57;102599.31;7277903;19;152375;-56
2022/03/22 10:50:16;;;;;;;;;;;;;;;22.31;38.62;102603.22;7287289;19;152025;-56
2022/03/22 10:53:00;;;;;;;;;;;;;;;22.32;38.57;102604.09;7277106;19;156632;-56
2022/03/22 10:55:28;;;;;;;;;;;;;;;22.31;38.59;102591.97;7279208;19;151815;-56
2022/03/22 10:57:58;;;;;;;;;;;;;;;22.31;38.79;102599.56;7278745;19;155577;-56
2022/03/22 11:00:26;;;;;;;;;;;;;;;22.30;38.72;102595.94;7277672;19;153597;-57
2022/03/22 11:02:56;;;;;;;;;;;;;;;22.30;38.59;102597.91;7279392;19;151633;-57
2022/03/22 11:05:24;;;;;;;;;;;;;;;22.29;38.75;102605.50;7273916;19;153393;-56
2022/03/22 11:07:52;;;;;;;;;;;;;;;22.28;38.83;102602.97;7273775;19;153257;-56
2022/03/22 11:10:29;;;;;;;;;;;;;;;22.26;38.95;102600.41;7286581;19;151911;-56
2022/03/22 11:13:00;;;;;;;;;;;;;;;22.25;38.64;102593.13;7274159;19;153605;-56
2022/03/22 11:15:28;;;;;;;;;;;;;;;22.25;38.60;102597.91;7279660;19;151518;-55
2022/03/22 11:17:55;;;;;;;;;;;;;;;22.23;38.71;102588.88;7279242;19;153691;-55
2022/03/22 11:20:23;;;;;;;;;;;;;;;22.22;38.75;102592.81;7276565;19;153554;-56
2022/03/22 11:22:55;;;;;;;;;;;;;;;22.22;39.04;102584.34;7276698;19;151723;-56
2022/03/22 11:25:31;;;;;;;;;;;;;;;22.22;38.81;102590.00;7278533;19;153542;-57
2022/03/22 11:27:59;;;;;;;;;;;;;;;22.21;38.62;102585.50;7275720;19;153626;-56
2022/03/22 11:30:27;;;;;;;;;;;;;;;22.21;38.91;102586.34;7276030;19;151973;-56
2022/03/22 11:35:46;;;;;;;;;;;;;;;22.21;38.62;102586.34;7279482;19;152015;-56
2022/03/22 11:38:14;;;;;;;;;;;;;;;22.22;38.83;102590.84;7277041;19;152992;-56
2022/03/22 11:43:41;;;;;;;;;;;;;;;22.22;38.90;102588.03;7278925;19;151571;-56
2022/03/22 11:46:08;;;;;;;;;;;;;;;22.21;38.92;102583.53;7277435;19;152778;-57
2022/03/22 11:48:38;;;;;;;;;;;;;;;22.21;39.00;102583.53;7276906;19;152190;-56
2022/03/22 11:51:06;;;;;;;;;;;;;;;22.23;38.78;102572.81;7277911;19;151698;-56
2022/03/22 11:53:42;;;;;;;;;;;;;;;22.23;38.61;102575.63;7278101;19;155078;-57
2022/03/22 11:56:10;;;;;;;;;;;;;;;22.23;38.56;102571.97;7290143;19;155775;-57
2022/03/22 11:58:36;;;;;;;;;;;;;;;22.24;38.77;102571.69;7282072;19;153467;-57
2022/03/22 12:01:22;;;;;;;;;;;;;;;22.25;38.94;102566.91;7282135;19;155277;-56
2022/03/22 12:03:52;;;;;;;;;;;;;;;22.23;38.75;102567.19;7283944;19;152133;-56
2022/03/22 12:06:19;;;;;;;;;;;;;;;22.24;38.95;102568.88;7281423;19;153965;-56
2022/03/22 12:08:46;;;;;;;;;;;;;;;22.23;38.93;102572.81;7278035;19;154467;-56
2022/03/22 12:11:16;;;;;;;;;;;;;;;22.23;38.93;102561.56;7282184;19;152171;-57
2022/03/22 12:13:44;;;;;;;;;;;;;;;22.26;38.72;102566.63;7284224;19;154229;-56
2022/03/22 12:16:11;;;;;;;;;;;;;;;22.23;38.76;102555.94;7281194;19;153732;-56
2022/03/22 12:18:40;;;;;;;;;;;;;;;22.25;38.79;102558.47;7289320;19;152119;-57
2022/03/22 12:21:17;;;;;;;;;;;;;;;22.24;38.57;102554.81;7282090;19;153310;-56
2022/03/22 12:23:44;;;;;;;;;;;;;;;22.25;38.50;102564.09;7282920;19;152036;-56
2022/03/22 12:26:11;;;;;;;;;;;;;;;22.24;38.88;102570.84;7283326;19;153415;-57
2022/03/22 12:28:48;;;;;;;;;;;;;;;22.21;38.72;102563.84;7282466;19;153203;-56
2022/03/22 12:31:15;;;;;;;;;;;;;;;22.22;38.42;102561.84;7284149;19;152075;-56
2022/03/22 12:33:51;;;;;;;;;;;;;;;22.21;38.62;102561.00;7284068;19;153499;-56
2022/03/22 12:36:18;;;;;;;;;;;;;;;22.23;38.22;102561.56;7282630;19;153312;-57
2022/03/22 12:38:45;;;;;;;;;;;;;;;22.22;38.28;102556.19;7280651;19;152215;-56
2022/03/22 12:41:14;;;;;;;;;;;;;;;22.19;38.33;102560.44;7289268;19;152842;-56
2022/03/22 12:43:45;;;;;;;;;;;;;;;22.18;38.36;102550.28;7282945;19;153763;-58
2022/03/22 12:46:15;;;;;;;;;;;;;;;22.18;38.47;102548.31;7281330;19;152876;-56
2022/03/22 12:48:42;;;;;;;;;;;;;;;22.18;38.07;102544.66;7280808;19;153475;-57
2022/03/22 12:51:11;;;;;;;;;;;;;;;22.17;38.35;102543.81;7282809;19;152105;-56
2022/03/22 12:53:37;;;;;;;;;;;;;;;22.18;38.38;102536.22;7283349;19;154408;-56
2022/03/22 12:56:14;;;;;;;;;;;;;;;22.15;38.26;102543.25;7281802;19;154514;-56
2022/03/22 12:58:41;;;;;;;;;;;;;;;22.18;37.90;102539.03;7280518;19;152279;-56
2022/03/22 13:01:08;;;;;;;;;;;;;;;22.15;38.25;102550.88;7282175;19;155024;-56
2022/03/22 13:03:36;;;;;;;;;;;;;;;22.13;38.32;102539.03;7285741;19;152030;-56
2022/03/22 13:06:05;;;;;;;;;;;;;;;22.13;38.44;102531.44;7279426;19;152771;-56
2022/03/22 13:11:26;;;;;;;;;;;;;;;22.10;38.56;102531.16;7277918;19;152544;-56
2022/03/22 13:16:54;;;;;;;;;;;;;;;22.07;38.05;102529.75;7277844;19;153034;-56